Time;durP1;ratioP1;P1;durP2;ratioP2;P2;SDS_P1;SDS_P2;PMS_P1;PMS_P2;Temp;Humidity;BMP_temperature;BMP_pressure;BME280_temperature;BME280_humidity;BME280_pressure;Samples;Min_cycle;Max_cycle;Signal;HPM_P1;HPM_P2
2021/05/18 00:01:56;;;;;;;10.18;9.38;;;8.80;83.70;;;;;;4940576;29;20044;-71
2021/05/18 00:04:28;;;;;;;10.48;9.68;;;8.80;83.20;;;;;;4936908;29;20609;-71
2021/05/18 00:07:00;;;;;;;10.43;9.63;;;8.80;83.30;;;;;;4936568;29;20051;-71
2021/05/18 00:12:23;;;;;;;10.63;9.82;;;8.70;83.30;;;;;;4936465;29;20054;-71
2021/05/18 00:14:55;;;;;;;10.25;9.45;;;8.70;83.30;;;;;;4938979;30;20055;-71
2021/05/18 00:17:28;;;;;;;10.40;9.60;;;8.70;83.80;;;;;;4935486;29;21937;-71
2021/05/18 00:20:00;;;;;;;10.00;9.20;;;8.70;83.70;;;;;;4936708;30;20048;-71
2021/05/18 00:22:32;;;;;;;10.55;9.75;;;8.60;83.50;;;;;;4934683;29;20059;-71
2021/05/18 00:25:07;;;;;;;10.35;9.55;;;8.50;83.70;;;;;;4938103;29;20044;-72
2021/05/18 00:27:39;;;;;;;10.63;9.82;;;8.50;83.80;;;;;;4934885;30;20054;-71
2021/05/18 00:30:13;;;;;;;10.32;9.52;;;8.50;84.20;;;;;;4936678;29;20040;-71
2021/05/18 00:32:45;;;;;;;10.60;9.80;;;8.50;84.60;;;;;;4939100;30;20047;-71
2021/05/18 00:35:17;;;;;;;10.43;9.63;;;8.40;84.10;;;;;;4935351;29;20054;-71
2021/05/18 00:37:49;;;;;;;10.60;9.80;;;8.40;84.10;;;;;;4928988;30;20482;-71
2021/05/18 00:40:21;;;;;;;10.70;9.90;;;8.40;84.10;;;;;;4937674;29;20108;-71
2021/05/18 00:42:55;;;;;;;10.40;9.60;;;8.50;84.60;;;;;;4938083;30;20108;-71
2021/05/18 00:45:33;;;;;;;11.15;9.68;;;8.50;83.10;;;;;;4944146;29;20051;-71
2021/05/18 00:48:06;;;;;;;10.25;9.45;;;8.50;83.40;;;;;;4933573;30;20043;-71
2021/05/18 00:50:41;;;;;;;10.30;9.40;;;8.50;83.30;;;;;;4934851;29;20054;-71
2021/05/18 00:53:14;;;;;;;10.40;9.60;;;8.50;83.90;;;;;;4953676;29;20091;-71
2021/05/18 00:56:00;;;;;;;10.65;9.60;;;8.50;84.00;;;;;;4942584;29;20134;-72
2021/05/18 00:58:38;;;;;;;10.30;9.50;;;8.50;83.90;;;;;;4919146;30;20525;-72
2021/05/18 01:01:20;;;;;;;10.50;9.70;;;8.50;84.10;;;;;;4938265;30;20048;-71
2021/05/18 01:03:54;;;;;;;10.57;9.77;;;8.40;84.10;;;;;;4934471;29;20077;-71
2021/05/18 01:06:30;;;;;;;10.80;10.00;;;8.40;84.80;;;;;;4938928;30;20097;-72
2021/05/18 01:09:11;;;;;;;10.32;9.52;;;8.40;83.90;;;;;;4936593;30;20122;-72
2021/05/18 01:11:46;;;;;;;10.52;9.63;;;8.40;84.10;;;;;;4936607;29;20047;-72
2021/05/18 01:14:19;;;;;;;11.38;10.48;;;8.40;84.10;;;;;;4940073;29;20426;-71
2021/05/18 01:16:52;;;;;;;10.63;9.82;;;8.40;84.30;;;;;;4935843;29;20056;-72
2021/05/18 01:19:26;;;;;;;10.80;10.00;;;8.30;84.10;;;;;;4941102;29;20154;-72
2021/05/18 01:22:01;;;;;;;10.65;9.80;;;8.30;84.00;;;;;;4919094;30;20091;-71
2021/05/18 01:24:38;;;;;;;10.88;10.07;;;8.20;84.20;;;;;;4951650;29;20044;-72
2021/05/18 01:27:11;;;;;;;10.80;10.00;;;8.20;84.60;;;;;;4951922;29;20511;-71
2021/05/18 01:29:43;;;;;;;10.82;10.02;;;8.20;84.40;;;;;;4944992;30;20162;-70
2021/05/18 01:32:22;;;;;;;10.93;10.13;;;8.20;84.10;;;;;;4958988;29;20046;-70
2021/05/18 01:34:54;;;;;;;10.63;9.82;;;8.10;84.30;;;;;;4945777;29;20258;-70
2021/05/18 01:37:27;;;;;;;10.77;9.98;;;8.10;84.00;;;;;;4944016;29;20170;-71
2021/05/18 01:42:59;;;;;;;10.45;9.65;;;8.00;83.30;;;;;;4943055;30;20121;-69
2021/05/18 01:45:34;;;;;;;10.80;10.00;;;8.00;83.50;;;;;;4947186;29;20055;-71
2021/05/18 01:48:14;;;;;;;10.52;9.73;;;8.10;83.80;;;;;;4934794;30;20059;-70
2021/05/18 01:51:01;;;;;;;10.77;9.98;;;8.10;83.70;;;;;;4952237;29;20062;-69
2021/05/18 01:53:33;;;;;;;12.32;10.63;;;8.10;84.20;;;;;;4945837;30;20081;-72
2021/05/18 01:58:45;;;;;;;10.20;9.45;;;8.20;83.80;;;;;;4947248;29;20047;-70
2021/05/18 02:01:36;;;;;;;10.48;9.68;;;8.20;83.70;;;;;;4939315;30;20054;-70
2021/05/18 02:04:32;;;;;;;10.80;10.00;;;8.20;83.70;;;;;;4945167;30;20058;-69
2021/05/18 02:07:14;;;;;;;10.75;9.95;;;8.20;83.40;;;;;;4935398;29;20058;-69
2021/05/18 02:09:47;;;;;;;10.68;9.88;;;8.30;83.40;;;;;;4947984;29;20051;-69
2021/05/18 02:12:20;;;;;;;10.75;9.95;;;8.30;83.40;;;;;;4906807;30;20138;-69
2021/05/18 02:14:57;;;;;;;10.73;9.93;;;8.30;83.30;;;;;;4935518;30;20158;-70
2021/05/18 02:17:37;;;;;;;10.95;10.15;;;8.30;83.40;;;;;;4935515;29;20051;-69
2021/05/18 02:26:06;;;;;;;;;;;8.30;84.40;;;;;;4935244;29;20059;-71
2021/05/18 02:28:43;;;;;;;10.50;9.70;;;8.30;83.40;;;;;;4934436;29;19929;-70
2021/05/18 02:31:16;;;;;;;10.85;10.05;;;8.30;83.50;;;;;;4937904;29;20079;-72
2021/05/18 02:33:51;;;;;;;10.55;9.75;;;8.30;83.00;;;;;;4934374;29;20055;-71
2021/05/18 02:36:27;;;;;;;11.00;10.20;;;8.30;83.60;;;;;;4945146;29;20119;-71
2021/05/18 02:39:00;;;;;;;11.02;10.10;;;8.30;83.60;;;;;;4935552;30;20092;-70
2021/05/18 02:41:33;;;;;;;10.80;10.00;;;8.30;83.70;;;;;;4933695;29;20063;-71
2021/05/18 02:44:12;;;;;;;10.98;10.07;;;8.30;83.30;;;;;;4938242;30;20154;-71
2021/05/18 02:49:47;;;;;;;10.68;9.88;;;8.30;83.60;;;;;;4953358;29;20054;-71
2021/05/18 02:52:20;;;;;;;10.95;10.15;;;8.30;83.60;;;;;;4939235;30;20075;-70
2021/05/18 02:54:55;;;;;;;10.35;9.55;;;8.30;83.30;;;;;;4937636;30;20452;-70
2021/05/18 02:57:35;;;;;;;11.30;10.50;;;8.30;83.60;;;;;;4937079;29;20140;-70
2021/05/18 03:00:09;;;;;;;10.60;9.80;;;8.30;83.80;;;;;;4934363;30;20051;-70
2021/05/18 03:02:41;;;;;;;10.70;9.90;;;8.30;83.90;;;;;;4936350;30;20387;-69
2021/05/18 03:05:13;;;;;;;11.30;10.43;;;8.30;83.70;;;;;;4935116;29;20087;-70
2021/05/18 03:07:46;;;;;;;10.98;10.18;;;8.20;84.00;;;;;;4935933;30;20134;-70
2021/05/18 03:10:19;;;;;;;11.13;10.30;;;8.20;84.00;;;;;;4936696;29;20047;-71
2021/05/18 03:12:51;;;;;;;11.15;10.35;;;8.20;83.90;;;;;;4939492;30;20051;-71
2021/05/18 03:15:23;;;;;;;10.85;10.05;;;8.20;84.30;;;;;;4939760;29;20436;-69
2021/05/18 03:17:55;;;;;;;11.00;10.20;;;8.10;84.10;;;;;;4939818;30;20506;-69
2021/05/18 03:20:27;;;;;;;11.02;10.23;;;8.20;84.60;;;;;;4940307;29;20047;-70
2021/05/18 03:22:59;;;;;;;11.15;10.35;;;8.10;84.60;;;;;;4940051;29;20061;-70
2021/05/18 03:25:31;;;;;;;11.00;10.18;;;8.10;84.80;;;;;;4956589;29;20043;-69
2021/05/18 03:28:05;;;;;;;11.00;10.20;;;8.10;84.30;;;;;;4961123;29;20035;-68
2021/05/18 03:54:17;;;;;;;;;;;8.00;83.30;;;;;;5318984;27;20031;-70
2021/05/18 04:52:06;;;;;;;8.85;8.15;;;7.60;83.60;;;;;;5305039;27;20035;-72
2021/05/18 05:00:04;;;;;;;9.05;8.35;;;7.70;83.60;;;;;;5304327;27;20043;-72
2021/05/18 05:08:12;;;;;;;9.10;8.40;;;7.80;83.80;;;;;;5283654;28;20043;-71
2021/05/18 05:15:49;;;;;;;9.23;8.52;;;7.90;83.50;;;;;;5280174;27;20036;-70
2021/05/18 05:18:21;;;;;;;9.35;8.65;;;7.80;83.50;;;;;;5281945;28;20498;-70
2021/05/18 05:20:53;;;;;;;9.35;8.65;;;7.80;83.10;;;;;;5279678;28;20043;-71
2021/05/18 05:23:25;;;;;;;8.80;8.10;;;7.80;83.40;;;;;;5280705;28;20039;-70
2021/05/18 05:25:57;;;;;;;9.40;8.60;;;7.80;83.60;;;;;;5280776;28;20046;-70
2021/05/18 05:28:29;;;;;;;9.10;8.40;;;7.80;84.10;;;;;;5281192;28;20410;-69
2021/05/18 05:31:01;;;;;;;9.00;8.30;;;7.80;83.60;;;;;;5279805;28;20442;-69
2021/05/18 05:33:32;;;;;;;9.10;8.32;;;7.80;84.10;;;;;;5282780;28;20520;-70
2021/05/18 05:36:04;;;;;;;8.48;7.78;;;7.80;84.30;;;;;;5276195;28;20570;-72
2021/05/18 05:38:37;;;;;;;8.90;8.20;;;7.80;84.20;;;;;;5281898;28;20047;-71
2021/05/18 05:41:09;;;;;;;9.18;8.48;;;7.90;84.00;;;;;;5264322;28;20043;-71
2021/05/18 05:43:41;;;;;;;9.00;8.30;;;7.90;84.10;;;;;;5277847;28;20097;-70
2021/05/18 05:46:13;;;;;;;8.77;8.05;;;7.90;85.00;;;;;;5264941;28;20040;-70
2021/05/18 05:48:52;;;;;;;9.25;8.50;;;7.90;84.50;;;;;;5281584;28;20047;-70
2021/05/18 05:51:26;;;;;;;9.52;8.73;;;7.90;84.80;;;;;;5279834;27;20044;-71
2021/05/18 05:53:59;;;;;;;9.23;8.43;;;7.90;85.00;;;;;;5279135;28;20047;-70
2021/05/18 05:56:31;;;;;;;9.52;8.75;;;8.00;84.80;;;;;;5279680;28;20457;-71
2021/05/18 05:59:06;;;;;;;9.23;8.52;;;8.00;85.30;;;;;;5281599;28;20097;-71
2021/05/18 06:01:37;;;;;;;9.35;8.65;;;8.10;84.70;;;;;;5277766;28;20044;-70
2021/05/18 06:04:09;;;;;;;9.43;8.73;;;8.10;85.10;;;;;;5282959;28;20043;-70
2021/05/18 06:06:41;;;;;;;9.30;8.50;;;8.10;85.00;;;;;;5277071;28;20056;-70
2021/05/18 06:09:13;;;;;;;9.32;8.63;;;8.10;85.30;;;;;;5280748;28;20028;-70
2021/05/18 06:14:32;;;;;;;9.05;8.35;;;8.20;84.00;;;;;;5279832;28;20691;-71
2021/05/18 06:43:07;;;;;;;8.70;8.00;;;8.20;83.10;;;;;;5283089;28;20097;-70
2021/05/18 06:48:29;;;;;;;10.35;8.30;;;8.20;82.90;;;;;;5283134;28;20065;-70
2021/05/18 06:51:03;;;;;;;9.10;8.40;;;8.20;82.60;;;;;;5282054;28;20047;-70
2021/05/18 06:53:35;;;;;;;8.80;8.10;;;8.30;83.50;;;;;;5283928;27;20054;-70
2021/05/18 06:56:07;;;;;;;8.80;8.10;;;8.40;81.90;;;;;;5282629;28;20048;-70
2021/05/18 07:01:10;;;;;;;8.60;7.93;;;8.30;82.40;;;;;;5274624;28;20050;-70
2021/05/18 07:06:37;;;;;;;8.70;8.00;;;8.20;82.20;;;;;;5282343;28;20043;-70
2021/05/18 07:09:09;;;;;;;8.57;7.90;;;8.30;82.70;;;;;;5298036;27;20417;-71
2021/05/18 07:11:41;;;;;;;8.48;7.78;;;8.30;83.20;;;;;;5281632;28;20047;-70
2021/05/18 07:14:13;;;;;;;8.75;8.05;;;8.30;83.30;;;;;;5298192;27;20044;-71
2021/05/18 07:16:45;;;;;;;8.40;7.70;;;8.40;83.10;;;;;;5282470;28;20130;-71
2021/05/18 07:19:17;;;;;;;8.88;8.18;;;8.30;81.70;;;;;;5281961;28;20036;-72
2021/05/18 07:21:49;;;;;;;8.82;8.02;;;8.30;83.40;;;;;;5276558;28;20500;-71
2021/05/18 07:24:25;;;;;;;8.70;8.00;;;8.40;82.80;;;;;;5282594;28;20047;-71
2021/05/18 07:26:58;;;;;;;11.07;9.93;;;8.40;82.20;;;;;;5281879;28;20047;-71
2021/05/18 07:29:30;;;;;;;15.13;12.93;;;8.40;83.20;;;;;;5282670;28;20058;-71
2021/05/18 07:32:03;;;;;;;11.05;9.95;;;8.40;83.20;;;;;;5281535;28;20430;-71
2021/05/18 07:34:35;;;;;;;10.07;9.20;;;8.50;83.60;;;;;;5282370;28;20062;-71
2021/05/18 07:37:07;;;;;;;9.65;8.85;;;8.50;83.70;;;;;;5281934;28;21023;-72
2021/05/18 07:39:39;;;;;;;9.90;9.10;;;8.60;83.60;;;;;;5280807;28;20123;-71
2021/05/18 07:42:11;;;;;;;9.63;8.93;;;8.70;83.90;;;;;;5281424;28;20112;-71
2021/05/18 07:44:44;;;;;;;9.38;8.68;;;8.80;83.70;;;;;;5282286;28;20074;-71
2021/05/18 07:47:17;;;;;;;9.88;9.07;;;8.90;83.90;;;;;;5280765;28;20043;-70
2021/05/18 07:49:51;;;;;;;10.00;9.20;;;9.00;84.40;;;;;;5264175;28;20433;-72
2021/05/18 08:01:11;;;;;;;10.55;9.75;;;9.60;82.80;;;;;;5274017;28;20058;-70
2021/05/18 08:06:24;;;;;;;12.10;11.00;;;9.60;83.30;;;;;;5280574;28;20574;-71
2021/05/18 08:08:56;;;;;;;10.20;9.40;;;9.60;83.20;;;;;;5280580;28;20052;-71
2021/05/18 08:11:28;;;;;;;10.23;9.43;;;9.60;82.60;;;;;;5281098;28;20101;-71
2021/05/18 08:14:00;;;;;;;9.80;9.10;;;9.60;82.90;;;;;;5282409;28;20044;-71
2021/05/18 08:58:32;;;;;;;11.13;10.13;;;10.20;82.00;;;;;;5284818;27;20518;-71
2021/05/18 10:36:00;;;;;;;8.93;8.23;;;10.10;75.50;;;;;;5282834;28;20043;-72
2021/05/18 10:38:50;;;;;;;8.23;7.63;;;10.10;74.80;;;;;;5297836;27;20039;-73
2021/05/18 10:41:28;;;;;;;8.23;7.63;;;10.00;75.70;;;;;;5282458;28;20062;-72
2021/05/18 10:44:02;;;;;;;8.55;7.85;;;9.90;74.30;;;;;;5298711;27;20075;-72
2021/05/18 10:46:56;;;;;;;8.20;7.60;;;9.70;75.70;;;;;;5280392;28;20055;-72
2021/05/18 10:49:35;;;;;;;9.05;8.35;;;9.60;77.40;;;;;;5283136;28;20067;-71
2021/05/18 10:52:09;;;;;;;9.20;8.50;;;9.50;78.50;;;;;;5297890;27;20078;-72
2021/05/18 10:54:41;;;;;;;9.38;8.55;;;9.60;78.20;;;;;;5281914;28;20042;-71
2021/05/18 10:57:20;;;;;;;11.43;10.43;;;9.60;78.70;;;;;;5282739;28;20391;-72
2021/05/18 10:59:57;;;;;;;10.00;9.20;;;9.60;78.60;;;;;;5282457;28;20391;-71
2021/05/18 11:02:38;;;;;;;9.80;9.00;;;9.60;78.00;;;;;;5281282;28;21359;-72
2021/05/18 11:05:14;;;;;;;9.02;8.23;;;9.50;77.40;;;;;;5282478;27;20050;-72
2021/05/18 11:07:47;;;;;;;8.90;8.20;;;9.40;75.70;;;;;;5264952;28;20528;-72
2021/05/18 11:10:20;;;;;;;8.50;7.80;;;9.30;78.20;;;;;;5264037;28;20414;-73
2021/05/18 11:12:54;;;;;;;9.10;8.38;;;9.30;78.50;;;;;;5283023;28;20043;-73
2021/05/18 11:15:26;;;;;;;9.00;8.13;;;9.40;78.30;;;;;;5281364;28;20040;-72
2021/05/18 11:17:58;;;;;;;8.25;7.55;;;9.60;79.00;;;;;;5280338;28;20036;-72
2021/05/18 11:23:24;;;;;;;9.38;8.57;;;9.90;78.50;;;;;;5277844;28;20039;-72
2021/05/18 11:26:08;;;;;;;9.48;8.77;;;10.00;79.10;;;;;;5281090;28;20146;-72
2021/05/18 11:28:45;;;;;;;9.77;9.00;;;10.10;76.40;;;;;;5281957;28;20058;-73
2021/05/18 11:31:26;;;;;;;9.02;8.30;;;10.00;76.50;;;;;;5277165;28;20032;-72
2021/05/18 11:34:04;;;;;;;9.45;8.68;;;10.10;78.50;;;;;;5279190;28;20051;-72
2021/05/18 11:36:40;;;;;;;10.07;9.27;;;10.20;77.00;;;;;;5279170;28;20392;-72
2021/05/18 11:39:14;;;;;;;9.73;8.93;;;10.30;78.30;;;;;;5262490;28;20063;-72
2021/05/18 11:41:53;;;;;;;9.48;8.68;;;10.30;77.20;;;;;;5278039;28;20122;-73
2021/05/18 11:44:34;;;;;;;8.95;8.25;;;10.30;78.40;;;;;;5280814;28;20534;-72
2021/05/18 11:47:07;;;;;;;9.75;8.95;;;10.20;78.10;;;;;;5278373;28;20040;-72
2021/05/18 11:49:46;;;;;;;9.50;8.77;;;10.30;79.40;;;;;;5276975;28;20067;-72
2021/05/18 11:52:18;;;;;;;9.70;9.00;;;10.40;78.60;;;;;;5279553;28;20051;-72
2021/05/18 11:54:50;;;;;;;9.57;8.88;;;10.50;78.10;;;;;;5280709;28;20052;-72
2021/05/18 11:57:22;;;;;;;9.13;8.43;;;10.50;78.70;;;;;;5279622;28;20090;-72
2021/05/18 11:59:54;;;;;;;9.60;8.70;;;10.40;75.80;;;;;;5278987;28;20613;-73
2021/05/18 12:02:26;;;;;;;9.15;8.45;;;10.50;77.50;;;;;;5282102;28;20117;-72
2021/05/18 12:05:04;;;;;;;8.77;8.07;;;10.50;74.20;;;;;;5283085;28;20040;-72
2021/05/18 12:07:36;;;;;;;8.88;8.18;;;10.50;74.60;;;;;;5283015;28;20410;-72
2021/05/18 12:10:09;;;;;;;9.38;8.68;;;10.50;75.20;;;;;;5285404;27;20036;-73
2021/05/18 12:12:44;;;;;;;9.27;8.57;;;10.80;75.90;;;;;;5274720;28;20422;-72
2021/05/18 12:15:16;;;;;;;9.70;9.00;;;11.10;77.80;;;;;;5283710;28;20730;-72
2021/05/18 12:17:52;;;;;;;9.48;8.77;;;11.40;75.80;;;;;;5284206;28;20052;-73
2021/05/18 12:20:39;;;;;;;10.50;9.70;;;11.60;76.70;;;;;;5280598;27;20066;-72
2021/05/18 12:23:11;;;;;;;10.52;9.73;;;11.70;73.90;;;;;;5283930;28;20035;-72
2021/05/18 12:25:44;;;;;;;10.48;9.68;;;11.80;77.30;;;;;;5280013;28;20048;-73
2021/05/18 12:28:19;;;;;;;10.27;9.48;;;11.90;75.90;;;;;;5283887;28;20100;-73
2021/05/18 12:30:51;;;;;;;10.50;9.60;;;12.10;75.30;;;;;;5283392;28;20160;-72
2021/05/18 12:33:37;;;;;;;11.20;10.23;;;12.40;76.20;;;;;;5293753;27;20119;-72
2021/05/18 12:36:09;;;;;;;10.30;9.50;;;12.80;72.80;;;;;;5280307;27;20050;-71
2021/05/18 12:38:41;;;;;;;10.30;9.50;;;12.90;70.60;;;;;;5281644;28;20858;-72
2021/05/18 12:41:13;;;;;;;9.82;9.13;;;12.70;67.30;;;;;;5281228;28;20588;-73
2021/05/18 12:43:45;;;;;;;10.45;9.65;;;12.60;72.70;;;;;;5277062;28;20063;-72
2021/05/18 12:46:17;;;;;;;11.13;10.23;;;12.60;70.00;;;;;;5280462;27;20032;-72
2021/05/18 12:48:49;;;;;;;10.85;10.05;;;12.60;70.90;;;;;;5275430;28;20044;-72
2021/05/18 12:51:24;;;;;;;11.18;10.38;;;12.80;71.90;;;;;;5280965;28;20050;-72
2021/05/18 12:54:04;;;;;;;11.18;10.38;;;12.90;73.00;;;;;;5279465;28;20032;-72
2021/05/18 12:56:37;;;;;;;11.43;10.63;;;13.10;70.40;;;;;;5274903;28;20039;-73
2021/05/18 12:59:12;;;;;;;11.30;10.50;;;13.20;71.10;;;;;;5276207;28;20061;-72
2021/05/18 13:01:45;;;;;;;11.50;10.70;;;13.30;67.80;;;;;;5262824;28;20089;-73
2021/05/18 13:04:19;;;;;;;11.13;10.32;;;13.30;67.80;;;;;;5278460;28;20043;-74
2021/05/18 13:06:51;;;;;;;11.35;10.55;;;13.20;67.80;;;;;;5280218;28;20059;-73
2021/05/18 13:09:31;;;;;;;11.80;10.80;;;13.20;68.60;;;;;;5279869;28;20070;-73
2021/05/18 13:12:11;;;;;;;11.43;10.63;;;13.20;71.90;;;;;;5280497;28;20047;-74
2021/05/18 13:15:00;;;;;;;11.95;11.10;;;13.30;72.10;;;;;;5277478;28;20035;-73
2021/05/18 13:17:33;;;;;;;11.65;10.85;;;13.50;71.20;;;;;;5278421;28;20056;-74
2021/05/18 13:20:12;;;;;;;12.25;11.35;;;13.60;68.70;;;;;;5280542;28;20032;-74
2021/05/18 13:22:48;;;;;;;11.88;11.07;;;13.90;69.60;;;;;;5298908;27;20050;-73
2021/05/18 13:28:11;;;;;;;12.10;11.20;;;14.20;69.00;;;;;;5297816;27;20116;-74
2021/05/18 13:30:43;;;;;;;12.65;11.65;;;14.50;65.10;;;;;;5299925;27;20050;-72
2021/05/18 13:33:15;;;;;;;12.27;11.38;;;14.90;65.50;;;;;;5301164;27;20505;-72
2021/05/18 13:35:48;;;;;;;12.85;11.85;;;15.10;65.70;;;;;;5300402;27;20116;-74
2021/05/18 13:38:20;;;;;;;12.35;11.45;;;15.00;58.60;;;;;;5300926;27;20091;-73
2021/05/18 13:40:52;;;;;;;11.70;10.90;;;14.90;61.20;;;;;;5300984;27;20047;-74
2021/05/18 13:43:24;;;;;;;11.55;10.75;;;14.70;64.20;;;;;;5299854;27;20096;-73
2021/05/18 13:45:56;;;;;;;11.80;11.00;;;14.50;61.60;;;;;;5296844;27;20565;-74
2021/05/18 13:48:28;;;;;;;11.23;10.43;;;14.40;64.60;;;;;;5299532;27;20063;-73
2021/05/18 13:51:00;;;;;;;11.32;10.43;;;14.30;61.40;;;;;;5298280;27;20047;-73
2021/05/18 13:53:51;;;;;;;11.23;10.43;;;14.20;63.70;;;;;;5300642;27;20051;-74
2021/05/18 13:56:23;;;;;;;11.20;10.40;;;14.00;60.40;;;;;;5301617;27;20035;-74
2021/05/18 13:58:55;;;;;;;11.23;10.43;;;13.90;64.20;;;;;;5301200;27;20039;-74
2021/05/18 14:01:27;;;;;;;11.10;10.25;;;13.90;62.60;;;;;;5300281;27;20394;-72
2021/05/18 14:03:59;;;;;;;11.57;10.75;;;13.90;63.90;;;;;;5301385;27;20032;-73
2021/05/18 14:06:33;;;;;;;11.45;10.63;;;13.80;64.70;;;;;;5298167;27;20151;-74
2021/05/18 14:09:05;;;;;;;11.32;10.52;;;13.80;62.80;;;;;;5300827;27;20760;-75
2021/05/18 14:11:37;;;;;;;11.10;10.30;;;13.80;64.10;;;;;;5300263;27;20120;-74
2021/05/18 14:14:09;;;;;;;10.88;9.98;;;13.70;66.80;;;;;;5300868;27;20095;-72
2021/05/18 14:16:41;;;;;;;11.20;10.38;;;13.70;66.30;;;;;;5282921;27;20071;-72
2021/05/18 14:19:13;;;;;;;11.50;10.60;;;13.60;65.80;;;;;;5278286;28;20097;-73
2021/05/18 14:21:45;;;;;;;10.88;10.07;;;13.60;68.10;;;;;;5294106;27;20104;-72
2021/05/18 14:24:23;;;;;;;11.15;10.35;;;13.60;65.10;;;;;;5302742;27;20104;-72
2021/05/18 14:26:55;;;;;;;11.00;10.20;;;13.50;60.70;;;;;;5299662;27;20599;-75
2021/05/18 14:29:27;;;;;;;11.02;10.13;;;13.60;62.90;;;;;;5298271;27;20360;-72
2021/05/18 14:31:59;;;;;;;10.80;10.00;;;13.60;66.30;;;;;;5298267;27;20039;-73
2021/05/18 14:34:31;;;;;;;10.77;9.98;;;13.60;61.50;;;;;;5298921;27;20091;-73
2021/05/18 14:37:03;;;;;;;10.85;10.05;;;13.60;65.40;;;;;;5299142;27;20039;-74
2021/05/18 14:39:49;;;;;;;10.80;10.00;;;13.50;67.70;;;;;;5299168;27;20039;-73
2021/05/18 14:45:17;;;;;;;10.88;9.98;;;13.30;65.70;;;;;;5300517;27;20043;-73
2021/05/18 14:56:25;;;;;;;10.85;10.02;;;12.70;66.60;;;;;;5299404;27;19927;-73
2021/05/18 14:58:57;;;;;;;10.40;9.50;;;12.50;64.10;;;;;;5300872;27;20065;-74
2021/05/18 15:01:30;;;;;;;10.63;9.73;;;12.10;58.60;;;;;;5303893;27;20046;-73
2021/05/18 15:04:02;;;;;;;9.98;9.18;;;11.80;62.30;;;;;;5300461;27;20442;-73
2021/05/18 15:06:34;;;;;;;9.75;8.95;;;11.60;60.90;;;;;;5299038;27;20753;-75
2021/05/18 15:09:06;;;;;;;9.68;8.88;;;11.60;64.00;;;;;;5300552;27;20035;-74
2021/05/18 15:11:38;;;;;;;10.25;9.25;;;11.50;66.40;;;;;;5301052;27;20092;-74
2021/05/18 15:14:10;;;;;;;9.90;9.10;;;11.30;68.00;;;;;;5301490;27;20126;-74
2021/05/18 15:16:42;;;;;;;10.05;9.25;;;11.10;68.30;;;;;;5302363;27;20058;-74
2021/05/18 15:19:17;;;;;;;10.02;9.10;;;11.10;69.20;;;;;;5301435;27;20072;-74
2021/05/18 15:21:50;;;;;;;10.27;9.38;;;11.00;71.10;;;;;;5296612;27;20043;-72
2021/05/18 15:24:22;;;;;;;9.80;9.10;;;11.00;69.40;;;;;;5299592;27;20553;-72
2021/05/18 15:26:54;;;;;;;10.52;9.63;;;11.10;70.70;;;;;;5297917;27;20035;-72
2021/05/18 15:29:26;;;;;;;10.43;9.63;;;11.30;71.10;;;;;;5296041;27;20055;-72
2021/05/18 15:31:59;;;;;;;10.20;9.40;;;11.20;70.20;;;;;;5297219;27;20051;-72
2021/05/18 15:34:34;;;;;;;10.80;9.90;;;11.30;70.50;;;;;;5285580;27;20051;-74
2021/05/18 15:37:07;;;;;;;11.30;10.40;;;12.10;73.60;;;;;;5301342;27;20035;-73
2021/05/18 15:39:39;;;;;;;12.52;11.52;;;13.10;68.70;;;;;;5296479;27;20562;-73
2021/05/18 15:42:11;;;;;;;12.73;11.68;;;13.50;69.60;;;;;;5296969;27;20058;-73
2021/05/18 15:44:43;;;;;;;13.25;12.25;;;14.30;68.60;;;;;;5315776;27;20409;-74
2021/05/18 15:47:15;;;;;;;16.67;15.27;;;15.00;63.00;;;;;;5298123;28;20035;-73
2021/05/18 15:49:47;;;;;;;13.50;12.40;;;15.40;63.90;;;;;;5294576;28;20035;-71
2021/05/18 15:52:19;;;;;;;13.65;12.55;;;15.80;64.40;;;;;;5281205;28;20046;-75
2021/05/18 15:54:51;;;;;;;13.43;12.38;;;16.40;64.00;;;;;;5277121;28;20063;-74
2021/05/18 15:57:23;;;;;;;14.55;13.45;;;16.20;61.10;;;;;;5296022;27;20035;-74
2021/05/18 15:59:56;;;;;;;14.10;12.90;;;15.60;59.10;;;;;;5299534;28;20040;-74
2021/05/18 16:02:29;;;;;;;15.02;13.80;;;15.60;60.10;;;;;;5297974;27;20051;-72
2021/05/18 16:05:01;;;;;;;14.63;13.48;;;15.80;58.80;;;;;;5294896;28;20043;-72
2021/05/18 16:07:35;;;;;;;20.25;18.40;;;15.80;60.60;;;;;;5301873;28;21037;-74
2021/05/18 16:10:08;;;;;;;13.10;12.10;;;15.80;57.90;;;;;;5300398;27;20405;-71
2021/05/18 16:12:41;;;;;;;14.05;12.93;;;15.50;60.90;;;;;;5299869;27;20417;-72
2021/05/18 16:15:13;;;;;;;22.10;20.35;;;15.50;59.60;;;;;;5297496;27;20047;-72
2021/05/18 16:17:45;;;;;;;14.15;13.05;;;15.40;60.80;;;;;;5301279;28;20035;-73
2021/05/18 16:20:17;;;;;;;14.75;13.57;;;16.10;60.70;;;;;;5297349;27;20047;-72
2021/05/18 16:22:49;;;;;;;15.45;14.35;;;16.70;59.10;;;;;;5299791;27;20039;-73
2021/05/18 16:25:21;;;;;;;15.68;14.57;;;17.60;61.00;;;;;;5299229;27;20043;-73
2021/05/18 16:27:53;;;;;;;15.80;14.60;;;18.60;61.20;;;;;;5295931;27;20191;-74
2021/05/18 16:30:25;;;;;;;14.98;13.88;;;18.90;55.20;;;;;;5299135;27;20047;-72
2021/05/18 16:32:58;;;;;;;14.70;13.60;;;18.60;51.90;;;;;;5315302;27;20080;-72
2021/05/18 16:35:29;;;;;;;14.20;13.10;;;18.20;54.40;;;;;;5299660;27;20043;-72
2021/05/18 16:38:03;;;;;;;13.52;12.48;;;17.80;53.90;;;;;;5299487;27;20039;-72
2021/05/18 16:40:35;;;;;;;14.07;12.98;;;17.30;54.20;;;;;;5312734;27;20059;-73
2021/05/18 16:43:07;;;;;;;13.43;12.43;;;17.00;56.10;;;;;;5297210;28;20667;-72
2021/05/18 16:45:39;;;;;;;13.45;12.45;;;16.70;56.20;;;;;;5299614;27;20039;-72
2021/05/18 16:48:11;;;;;;;13.38;12.30;;;16.30;57.00;;;;;;5304575;27;20061;-71
2021/05/18 16:50:43;;;;;;;13.13;12.13;;;16.10;59.00;;;;;;5300736;27;20074;-72
2021/05/18 16:53:15;;;;;;;13.20;12.20;;;16.10;58.90;;;;;;5303056;27;20047;-72
2021/05/18 16:55:48;;;;;;;13.15;12.15;;;16.30;57.90;;;;;;5298613;27;20039;-71
2021/05/18 16:58:20;;;;;;;12.48;11.48;;;16.40;57.60;;;;;;5304272;27;20073;-71
2021/05/18 17:00:52;;;;;;;12.00;11.10;;;16.10;58.10;;;;;;5301637;27;20502;-71
2021/05/18 17:03:24;;;;;;;12.13;11.23;;;15.90;58.60;;;;;;5299944;27;20042;-71
2021/05/18 17:05:57;;;;;;;12.50;11.32;;;15.70;58.70;;;;;;5302295;27;20387;-72
2021/05/18 17:08:29;;;;;;;11.90;10.88;;;15.40;60.50;;;;;;5303607;27;20039;-71
2021/05/18 17:11:01;;;;;;;11.70;10.80;;;15.20;61.30;;;;;;5299540;27;20632;-71
2021/05/18 17:13:33;;;;;;;11.40;10.50;;;15.00;61.50;;;;;;5302789;27;20787;-72
2021/05/18 17:16:05;;;;;;;11.32;10.43;;;14.70;62.70;;;;;;5300988;27;20046;-71
2021/05/18 17:18:37;;;;;;;11.55;10.65;;;14.60;63.60;;;;;;5303284;27;20506;-71
2021/05/18 17:21:09;;;;;;;11.50;10.60;;;14.40;64.60;;;;;;5301639;27;20039;-71
2021/05/18 17:23:41;;;;;;;11.55;10.65;;;14.20;65.00;;;;;;5319545;27;20047;-71
2021/05/18 17:26:13;;;;;;;11.02;10.13;;;14.10;65.40;;;;;;5302643;27;20054;-71
2021/05/18 17:28:45;;;;;;;11.18;10.27;;;14.00;65.70;;;;;;5303125;27;20047;-72
2021/05/18 17:31:17;;;;;;;11.13;10.30;;;13.90;66.00;;;;;;5279182;27;20096;-71
2021/05/18 17:33:49;;;;;;;10.95;9.95;;;13.60;66.20;;;;;;5301342;27;20043;-71
2021/05/18 17:36:24;;;;;;;10.73;9.93;;;13.50;66.70;;;;;;5287233;27;20051;-71
2021/05/18 17:38:56;;;;;;;10.82;9.93;;;13.40;67.00;;;;;;5281322;27;20044;-71
2021/05/18 17:41:28;;;;;;;10.82;10.02;;;13.30;68.40;;;;;;5292366;27;20047;-71
2021/05/18 17:44:00;;;;;;;10.60;9.80;;;13.20;68.70;;;;;;5303798;27;20123;-71
2021/05/18 17:46:33;;;;;;;10.18;9.38;;;13.20;69.40;;;;;;5299749;27;20463;-71
2021/05/18 17:49:06;;;;;;;10.55;9.70;;;13.10;69.40;;;;;;5295862;27;20099;-72
2021/05/18 17:51:38;;;;;;;10.55;9.65;;;13.00;69.20;;;;;;5300667;27;21001;-72
2021/05/18 17:54:10;;;;;;;11.57;10.57;;;12.90;69.60;;;;;;5300084;27;20051;-71
2021/05/18 17:56:43;;;;;;;10.73;9.80;;;12.80;69.60;;;;;;5299341;27;20161;-71
2021/05/18 17:59:16;;;;;;;10.30;9.50;;;12.80;70.10;;;;;;5299685;27;20035;-72
2021/05/18 18:01:48;;;;;;;10.32;9.43;;;12.70;70.40;;;;;;5298270;27;20054;-72
2021/05/18 18:04:20;;;;;;;10.23;9.30;;;12.60;71.00;;;;;;5300624;27;20452;-72
2021/05/18 18:06:55;;;;;;;10.07;9.27;;;12.50;70.80;;;;;;5302232;27;20039;-71
2021/05/18 18:09:28;;;;;;;10.48;9.52;;;12.40;71.00;;;;;;5301350;27;20051;-71
2021/05/18 18:12:00;;;;;;;10.35;9.50;;;12.30;71.20;;;;;;5301417;27;20054;-71
2021/05/18 18:14:33;;;;;;;10.48;9.43;;;12.20;72.10;;;;;;5307165;27;20497;-71
2021/05/18 18:17:17;;;;;;;10.10;9.30;;;12.10;72.50;;;;;;5306633;27;20088;-71
2021/05/18 18:19:51;;;;;;;10.27;9.43;;;11.90;72.80;;;;;;5312290;27;20056;-71
2021/05/18 18:22:27;;;;;;;10.38;9.50;;;11.80;72.90;;;;;;5311970;27;20051;-71
2021/05/18 18:24:59;;;;;;;10.45;9.45;;;11.60;73.60;;;;;;5312325;27;20039;-70
2021/05/18 18:27:40;;;;;;;10.45;9.57;;;11.50;73.80;;;;;;5309433;27;20047;-70
2021/05/18 18:30:13;;;;;;;10.80;9.90;;;11.50;73.60;;;;;;5307890;27;20606;-70